sensor_id;sensor_type;location;lat;lon;timestamp;P1;durP1;ratioP1;P2;durP2;ratioP2
39362;SDS011;25088;43.238;23.110;2023-03-23T00:00:46;0.30;;;0.30;;
39362;SDS011;25088;43.238;23.110;2023-03-23T00:03:12;0.30;;;0.30;;
39362;SDS011;25088;43.238;23.110;2023-03-23T00:05:38;0.30;;;0.30;;
39362;SDS011;25088;43.238;23.110;2023-03-23T00:08:06;0.30;;;0.30;;
39362;SDS011;25088;43.238;23.110;2023-03-23T00:10:34;0.30;;;0.30;;
39362;SDS011;25088;43.238;23.110;2023-03-23T00:13:00;0.30;;;0.30;;
39362;SDS011;25088;43.238;23.110;2023-03-23T00:15:27;0.30;;;0.30;;
39362;SDS011;25088;43.238;23.110;2023-03-23T00:17:58;0.30;;;0.30;;
39362;SDS011;25088;43.238;23.110;2023-03-23T00:20:31;0.30;;;0.30;;
39362;SDS011;25088;43.238;23.110;2023-03-23T00:23:05;0.30;;;0.30;;
39362;SDS011;25088;43.238;23.110;2023-03-23T00:25:32;0.30;;;0.30;;
39362;SDS011;25088;43.238;23.110;2023-03-23T00:27:57;0.30;;;0.30;;
39362;SDS011;25088;43.238;23.110;2023-03-23T00:30:23;0.30;;;0.30;;
39362;SDS011;25088;43.238;23.110;2023-03-23T00:32:48;0.30;;;0.30;;
39362;SDS011;25088;43.238;23.110;2023-03-23T00:35:15;0.30;;;0.30;;
39362;SDS011;25088;43.238;23.110;2023-03-23T00:37:44;0.30;;;0.30;;
39362;SDS011;25088;43.238;23.110;2023-03-23T00:40:10;0.30;;;0.30;;
39362;SDS011;25088;43.238;23.110;2023-03-23T00:42:36;0.30;;;0.30;;
39362;SDS011;25088;43.238;23.110;2023-03-23T00:45:03;0.20;;;0.20;;
39362;SDS011;25088;43.238;23.110;2023-03-23T00:47:35;0.30;;;0.30;;
39362;SDS011;25088;43.238;23.110;2023-03-23T00:50:02;0.20;;;0.20;;
39362;SDS011;25088;43.238;23.110;2023-03-23T00:52:30;0.20;;;0.20;;
39362;SDS011;25088;43.238;23.110;2023-03-23T00:54:56;0.30;;;0.30;;
39362;SDS011;25088;43.238;23.110;2023-03-23T00:57:21;0.20;;;0.20;;
39362;SDS011;25088;43.238;23.110;2023-03-23T00:59:49;0.20;;;0.20;;
39362;SDS011;25088;43.238;23.110;2023-03-23T01:02:15;0.20;;;0.20;;
39362;SDS011;25088;43.238;23.110;2023-03-23T01:04:41;0.30;;;0.30;;
39362;SDS011;25088;43.238;23.110;2023-03-23T01:07:09;0.20;;;0.20;;
39362;SDS011;25088;43.238;23.110;2023-03-23T01:09:38;0.20;;;0.20;;
39362;SDS011;25088;43.238;23.110;2023-03-23T01:12:05;0.20;;;0.20;;
39362;SDS011;25088;43.238;23.110;2023-03-23T01:14:30;0.20;;;0.20;;
39362;SDS011;25088;43.238;23.110;2023-03-23T01:16:56;0.20;;;0.20;;
39362;SDS011;25088;43.238;23.110;2023-03-23T01:19:22;0.20;;;0.20;;
39362;SDS011;25088;43.238;23.110;2023-03-23T01:21:47;0.20;;;0.20;;
39362;SDS011;25088;43.238;23.110;2023-03-23T01:24:13;0.20;;;0.20;;
39362;SDS011;25088;43.238;23.110;2023-03-23T01:26:38;0.20;;;0.20;;
39362;SDS011;25088;43.238;23.110;2023-03-23T01:29:04;0.20;;;0.20;;
39362;SDS011;25088;43.238;23.110;2023-03-23T01:31:29;0.20;;;0.20;;
39362;SDS011;25088;43.238;23.110;2023-03-23T01:33:55;0.20;;;0.20;;
39362;SDS011;25088;43.238;23.110;2023-03-23T01:36:23;0.20;;;0.20;;
39362;SDS011;25088;43.238;23.110;2023-03-23T01:38:51;0.20;;;0.20;;
39362;SDS011;25088;43.238;23.110;2023-03-23T01:41:19;0.20;;;0.20;;
39362;SDS011;25088;43.238;23.110;2023-03-23T01:46:31;0.30;;;0.30;;
39362;SDS011;25088;43.238;23.110;2023-03-23T01:49:03;0.30;;;0.30;;
39362;SDS011;25088;43.238;23.110;2023-03-23T01:51:34;0.30;;;0.30;;
39362;SDS011;25088;43.238;23.110;2023-03-23T01:54:06;0.20;;;0.20;;
39362;SDS011;25088;43.238;23.110;2023-03-23T01:56:39;0.30;;;0.30;;
39362;SDS011;25088;43.238;23.110;2023-03-23T01:59:10;0.30;;;0.30;;
39362;SDS011;25088;43.238;23.110;2023-03-23T02:01:36;0.25;;;0.25;;
39362;SDS011;25088;43.238;23.110;2023-03-23T02:04:05;0.20;;;0.20;;
39362;SDS011;25088;43.238;23.110;2023-03-23T02:06:31;0.30;;;0.30;;
39362;SDS011;25088;43.238;23.110;2023-03-23T02:08:56;0.30;;;0.30;;
39362;SDS011;25088;43.238;23.110;2023-03-23T02:11:23;0.28;;;0.28;;
39362;SDS011;25088;43.238;23.110;2023-03-23T02:13:49;0.30;;;0.30;;
39362;SDS011;25088;43.238;23.110;2023-03-23T02:35:39;0.30;;;0.30;;
39362;SDS011;25088;43.238;23.110;2023-03-23T02:38:38;0.30;;;0.30;;
39362;SDS011;25088;43.238;23.110;2023-03-23T02:41:08;0.30;;;0.30;;
39362;SDS011;25088;43.238;23.110;2023-03-23T02:43:39;0.30;;;0.30;;
39362;SDS011;25088;43.238;23.110;2023-03-23T02:46:09;0.30;;;0.30;;
39362;SDS011;25088;43.238;23.110;2023-03-23T02:48:36;0.30;;;0.30;;
39362;SDS011;25088;43.238;23.110;2023-03-23T02:51:05;0.30;;;0.30;;
39362;SDS011;25088;43.238;23.110;2023-03-23T02:53:33;0.30;;;0.30;;
39362;SDS011;25088;43.238;23.110;2023-03-23T02:56:01;0.30;;;0.30;;
39362;SDS011;25088;43.238;23.110;2023-03-23T02:58:30;0.30;;;0.30;;
39362;SDS011;25088;43.238;23.110;2023-03-23T03:00:55;0.30;;;0.30;;
39362;SDS011;25088;43.238;23.110;2023-03-23T03:03:25;0.30;;;0.30;;
39362;SDS011;25088;43.238;23.110;2023-03-23T03:08:23;0.30;;;0.30;;
39362;SDS011;25088;43.238;23.110;2023-03-23T03:11:02;0.30;;;0.30;;
39362;SDS011;25088;43.238;23.110;2023-03-23T03:21:27;0.30;;;0.30;;
39362;SDS011;25088;43.238;23.110;2023-03-23T03:23:58;0.30;;;0.30;;
39362;SDS011;25088;43.238;23.110;2023-03-23T03:26:26;0.30;;;0.30;;
39362;SDS011;25088;43.238;23.110;2023-03-23T03:28:54;0.30;;;0.30;;
39362;SDS011;25088;43.238;23.110;2023-03-23T03:31:21;0.30;;;0.30;;
39362;SDS011;25088;43.238;23.110;2023-03-23T03:33:51;0.30;;;0.30;;
39362;SDS011;25088;43.238;23.110;2023-03-23T03:36:18;0.30;;;0.30;;
39362;SDS011;25088;43.238;23.110;2023-03-23T03:38:47;0.30;;;0.30;;
39362;SDS011;25088;43.238;23.110;2023-03-23T03:41:15;0.30;;;0.30;;
39362;SDS011;25088;43.238;23.110;2023-03-23T03:43:41;0.30;;;0.30;;
39362;SDS011;25088;43.238;23.110;2023-03-23T03:46:06;0.30;;;0.30;;
39362;SDS011;25088;43.238;23.110;2023-03-23T03:48:32;0.30;;;0.30;;
39362;SDS011;25088;43.238;23.110;2023-03-23T03:50:58;0.30;;;0.30;;
39362;SDS011;25088;43.238;23.110;2023-03-23T03:53:25;0.30;;;0.30;;
39362;SDS011;25088;43.238;23.110;2023-03-23T03:55:51;0.30;;;0.30;;
39362;SDS011;25088;43.238;23.110;2023-03-23T03:58:20;0.30;;;0.30;;
39362;SDS011;25088;43.238;23.110;2023-03-23T04:00:47;0.30;;;0.30;;
39362;SDS011;25088;43.238;23.110;2023-03-23T04:03:13;0.30;;;0.30;;
39362;SDS011;25088;43.238;23.110;2023-03-23T04:05:38;0.30;;;0.30;;
39362;SDS011;25088;43.238;23.110;2023-03-23T04:08:05;0.30;;;0.30;;
39362;SDS011;25088;43.238;23.110;2023-03-23T04:10:31;0.30;;;0.30;;
39362;SDS011;25088;43.238;23.110;2023-03-23T04:12:56;0.30;;;0.30;;
39362;SDS011;25088;43.238;23.110;2023-03-23T04:15:22;0.30;;;0.30;;
39362;SDS011;25088;43.238;23.110;2023-03-23T04:17:48;0.30;;;0.30;;
39362;SDS011;25088;43.238;23.110;2023-03-23T04:20:15;0.30;;;0.30;;
39362;SDS011;25088;43.238;23.110;2023-03-23T04:22:46;0.20;;;0.20;;
39362;SDS011;25088;43.238;23.110;2023-03-23T04:25:17;0.30;;;0.30;;
39362;SDS011;25088;43.238;23.110;2023-03-23T04:27:46;0.30;;;0.30;;
39362;SDS011;25088;43.238;23.110;2023-03-23T04:30:18;0.30;;;0.30;;
39362;SDS011;25088;43.238;23.110;2023-03-23T04:32:48;0.30;;;0.30;;
39362;SDS011;25088;43.238;23.110;2023-03-23T04:35:20;0.30;;;0.30;;
39362;SDS011;25088;43.238;23.110;2023-03-23T04:37:47;0.30;;;0.30;;
39362;SDS011;25088;43.238;23.110;2023-03-23T04:40:13;0.30;;;0.30;;
39362;SDS011;25088;43.238;23.110;2023-03-23T04:42:41;0.30;;;0.30;;
39362;SDS011;25088;43.238;23.110;2023-03-23T04:45:11;0.30;;;0.30;;
39362;SDS011;25088;43.238;23.110;2023-03-23T04:47:39;0.30;;;0.30;;
39362;SDS011;25088;43.238;23.110;2023-03-23T04:50:09;0.30;;;0.30;;
39362;SDS011;25088;43.238;23.110;2023-03-23T04:52:37;0.30;;;0.30;;
39362;SDS011;25088;43.238;23.110;2023-03-23T04:55:05;0.30;;;0.30;;
39362;SDS011;25088;43.238;23.110;2023-03-23T04:57:32;0.30;;;0.30;;
39362;SDS011;25088;43.238;23.110;2023-03-23T04:59:58;0.30;;;0.30;;
39362;SDS011;25088;43.238;23.110;2023-03-23T05:02:25;0.22;;;0.22;;
39362;SDS011;25088;43.238;23.110;2023-03-23T05:04:55;0.30;;;0.30;;
39362;SDS011;25088;43.238;23.110;2023-03-23T05:07:22;0.20;;;0.20;;
39362;SDS011;25088;43.238;23.110;2023-03-23T05:09:47;0.30;;;0.30;;
39362;SDS011;25088;43.238;23.110;2023-03-23T05:12:13;0.20;;;0.20;;
39362;SDS011;25088;43.238;23.110;2023-03-23T05:14:41;0.20;;;0.20;;
39362;SDS011;25088;43.238;23.110;2023-03-23T05:17:07;0.30;;;0.30;;
39362;SDS011;25088;43.238;23.110;2023-03-23T05:19:34;0.22;;;0.22;;
39362;SDS011;25088;43.238;23.110;2023-03-23T05:22:01;0.20;;;0.20;;
39362;SDS011;25088;43.238;23.110;2023-03-23T05:24:28;0.20;;;0.20;;
39362;SDS011;25088;43.238;23.110;2023-03-23T05:26:58;0.20;;;0.20;;
39362;SDS011;25088;43.238;23.110;2023-03-23T05:29:24;0.20;;;0.20;;
39362;SDS011;25088;43.238;23.110;2023-03-23T05:31:50;0.20;;;0.20;;
39362;SDS011;25088;43.238;23.110;2023-03-23T05:34:17;0.20;;;0.20;;
39362;SDS011;25088;43.238;23.110;2023-03-23T05:36:44;0.20;;;0.20;;
39362;SDS011;25088;43.238;23.110;2023-03-23T05:39:13;0.20;;;0.20;;
39362;SDS011;25088;43.238;23.110;2023-03-23T05:41:39;0.20;;;0.20;;
39362;SDS011;25088;43.238;23.110;2023-03-23T05:44:05;0.20;;;0.20;;
39362;SDS011;25088;43.238;23.110;2023-03-23T05:46:30;0.20;;;0.20;;
39362;SDS011;25088;43.238;23.110;2023-03-23T05:48:55;0.20;;;0.20;;
39362;SDS011;25088;43.238;23.110;2023-03-23T05:51:21;0.17;;;0.17;;
39362;SDS011;25088;43.238;23.110;2023-03-23T05:53:47;0.10;;;0.10;;
39362;SDS011;25088;43.238;23.110;2023-03-23T05:56:13;0.10;;;0.10;;
39362;SDS011;25088;43.238;23.110;2023-03-23T05:58:39;0.20;;;0.20;;
39362;SDS011;25088;43.238;23.110;2023-03-23T06:01:08;0.10;;;0.10;;
39362;SDS011;25088;43.238;23.110;2023-03-23T06:03:34;0.10;;;0.10;;
39362;SDS011;25088;43.238;23.110;2023-03-23T06:06:02;0.10;;;0.10;;
39362;SDS011;25088;43.238;23.110;2023-03-23T06:08:28;0.10;;;0.10;;
39362;SDS011;25088;43.238;23.110;2023-03-23T06:10:53;0.10;;;0.10;;
39362;SDS011;25088;43.238;23.110;2023-03-23T06:13:20;0.10;;;0.10;;
39362;SDS011;25088;43.238;23.110;2023-03-23T06:15:46;0.10;;;0.10;;
39362;SDS011;25088;43.238;23.110;2023-03-23T06:18:12;0.10;;;0.10;;
39362;SDS011;25088;43.238;23.110;2023-03-23T06:20:39;0.10;;;0.10;;
39362;SDS011;25088;43.238;23.110;2023-03-23T06:23:04;0.00;;;0.00;;
39362;SDS011;25088;43.238;23.110;2023-03-23T06:25:30;0.10;;;0.10;;
39362;SDS011;25088;43.238;23.110;2023-03-23T06:27:56;0.00;;;0.00;;
39362;SDS011;25088;43.238;23.110;2023-03-23T06:30:21;0.10;;;0.10;;
39362;SDS011;25088;43.238;23.110;2023-03-23T06:32:47;0.00;;;0.00;;
39362;SDS011;25088;43.238;23.110;2023-03-23T06:35:13;0.08;;;0.08;;
39362;SDS011;25088;43.238;23.110;2023-03-23T06:37:40;0.00;;;0.00;;
39362;SDS011;25088;43.238;23.110;2023-03-23T06:40:06;0.00;;;0.00;;
39362;SDS011;25088;43.238;23.110;2023-03-23T06:42:32;0.00;;;0.00;;
39362;SDS011;25088;43.238;23.110;2023-03-23T06:44:59;0.10;;;0.10;;
39362;SDS011;25088;43.238;23.110;2023-03-23T06:47:25;0.00;;;0.00;;
39362;SDS011;25088;43.238;23.110;2023-03-23T06:49:54;0.00;;;0.00;;
39362;SDS011;25088;43.238;23.110;2023-03-23T06:52:20;0.00;;;0.00;;
39362;SDS011;25088;43.238;23.110;2023-03-23T06:54:47;0.00;;;0.00;;
39362;SDS011;25088;43.238;23.110;2023-03-23T06:57:13;0.00;;;0.00;;
39362;SDS011;25088;43.238;23.110;2023-03-23T06:59:38;0.00;;;0.00;;
39362;SDS011;25088;43.238;23.110;2023-03-23T07:02:04;0.00;;;0.00;;
39362;SDS011;25088;43.238;23.110;2023-03-23T07:04:29;0.00;;;0.00;;
39362;SDS011;25088;43.238;23.110;2023-03-23T07:06:55;0.00;;;0.00;;
39362;SDS011;25088;43.238;23.110;2023-03-23T07:09:21;0.08;;;0.08;;
39362;SDS011;25088;43.238;23.110;2023-03-23T07:11:47;0.00;;;0.00;;
39362;SDS011;25088;43.238;23.110;2023-03-23T07:14:12;0.00;;;0.00;;
39362;SDS011;25088;43.238;23.110;2023-03-23T07:16:38;0.00;;;0.00;;
39362;SDS011;25088;43.238;23.110;2023-03-23T07:19:04;0.00;;;0.00;;
39362;SDS011;25088;43.238;23.110;2023-03-23T07:21:29;0.00;;;0.00;;
39362;SDS011;25088;43.238;23.110;2023-03-23T07:23:54;0.00;;;0.00;;
39362;SDS011;25088;43.238;23.110;2023-03-23T07:26:20;0.00;;;0.00;;
39362;SDS011;25088;43.238;23.110;2023-03-23T07:28:46;0.00;;;0.00;;
39362;SDS011;25088;43.238;23.110;2023-03-23T07:31:12;0.00;;;0.00;;
39362;SDS011;25088;43.238;23.110;2023-03-23T07:33:37;0.00;;;0.00;;
39362;SDS011;25088;43.238;23.110;2023-03-23T07:36:03;0.00;;;0.00;;
39362;SDS011;25088;43.238;23.110;2023-03-23T07:38:30;0.00;;;0.00;;
39362;SDS011;25088;43.238;23.110;2023-03-23T07:40:56;0.00;;;0.00;;
39362;SDS011;25088;43.238;23.110;2023-03-23T07:43:22;0.00;;;0.00;;
39362;SDS011;25088;43.238;23.110;2023-03-23T07:45:47;0.00;;;0.00;;
39362;SDS011;25088;43.238;23.110;2023-03-23T07:48:13;0.00;;;0.00;;
39362;SDS011;25088;43.238;23.110;2023-03-23T07:50:39;0.00;;;0.00;;
39362;SDS011;25088;43.238;23.110;2023-03-23T07:53:05;0.00;;;0.00;;
39362;SDS011;25088;43.238;23.110;2023-03-23T07:55:31;0.00;;;0.00;;
39362;SDS011;25088;43.238;23.110;2023-03-23T07:57:56;0.00;;;0.00;;
39362;SDS011;25088;43.238;23.110;2023-03-23T08:00:22;0.00;;;0.00;;
39362;SDS011;25088;43.238;23.110;2023-03-23T08:02:57;0.00;;;0.00;;
39362;SDS011;25088;43.238;23.110;2023-03-23T08:05:24;0.00;;;0.00;;
39362;SDS011;25088;43.238;23.110;2023-03-23T08:07:51;0.00;;;0.00;;
39362;SDS011;25088;43.238;23.110;2023-03-23T08:10:19;0.00;;;0.00;;
39362;SDS011;25088;43.238;23.110;2023-03-23T08:12:50;0.00;;;0.00;;
39362;SDS011;25088;43.238;23.110;2023-03-23T08:15:17;0.00;;;0.00;;
39362;SDS011;25088;43.238;23.110;2023-03-23T08:17:43;0.00;;;0.00;;
39362;SDS011;25088;43.238;23.110;2023-03-23T08:20:09;0.00;;;0.00;;
39362;SDS011;25088;43.238;23.110;2023-03-23T08:22:43;0.00;;;0.00;;
39362;SDS011;25088;43.238;23.110;2023-03-23T08:25:10;0.00;;;0.00;;
39362;SDS011;25088;43.238;23.110;2023-03-23T08:27:39;0.00;;;0.00;;
39362;SDS011;25088;43.238;23.110;2023-03-23T08:30:12;0.00;;;0.00;;
39362;SDS011;25088;43.238;23.110;2023-03-23T08:32:42;0.00;;;0.00;;
39362;SDS011;25088;43.238;23.110;2023-03-23T08:35:09;0.00;;;0.00;;
39362;SDS011;25088;43.238;23.110;2023-03-23T08:37:35;0.00;;;0.00;;
39362;SDS011;25088;43.238;23.110;2023-03-23T08:40:02;0.00;;;0.00;;
39362;SDS011;25088;43.238;23.110;2023-03-23T08:42:38;0.00;;;0.00;;
39362;SDS011;25088;43.238;23.110;2023-03-23T08:45:05;0.00;;;0.00;;
39362;SDS011;25088;43.238;23.110;2023-03-23T08:47:32;0.00;;;0.00;;
39362;SDS011;25088;43.238;23.110;2023-03-23T08:49:58;0.00;;;0.00;;
39362;SDS011;25088;43.238;23.110;2023-03-23T08:52:25;0.00;;;0.00;;
39362;SDS011;25088;43.238;23.110;2023-03-23T08:54:50;0.00;;;0.00;;
39362;SDS011;25088;43.238;23.110;2023-03-23T08:57:16;0.00;;;0.00;;
39362;SDS011;25088;43.238;23.110;2023-03-23T08:59:43;0.00;;;0.00;;
39362;SDS011;25088;43.238;23.110;2023-03-23T09:02:12;0.00;;;0.00;;
39362;SDS011;25088;43.238;23.110;2023-03-23T09:04:38;0.00;;;0.00;;
39362;SDS011;25088;43.238;23.110;2023-03-23T09:07:07;0.00;;;0.00;;
39362;SDS011;25088;43.238;23.110;2023-03-23T09:09:34;0.00;;;0.00;;
39362;SDS011;25088;43.238;23.110;2023-03-23T09:12:00;0.00;;;0.00;;
39362;SDS011;25088;43.238;23.110;2023-03-23T09:14:25;0.00;;;0.00;;
39362;SDS011;25088;43.238;23.110;2023-03-23T09:16:51;0.00;;;0.00;;
39362;SDS011;25088;43.238;23.110;2023-03-23T09:19:17;0.00;;;0.00;;
39362;SDS011;25088;43.238;23.110;2023-03-23T09:21:43;0.00;;;0.00;;
39362;SDS011;25088;43.238;23.110;2023-03-23T09:24:10;0.00;;;0.00;;
39362;SDS011;25088;43.238;23.110;2023-03-23T09:26:36;0.00;;;0.00;;
39362;SDS011;25088;43.238;23.110;2023-03-23T09:29:01;0.00;;;0.00;;
39362;SDS011;25088;43.238;23.110;2023-03-23T09:31:27;0.00;;;0.00;;
39362;SDS011;25088;43.238;23.110;2023-03-23T09:33:54;0.00;;;0.00;;
39362;SDS011;25088;43.238;23.110;2023-03-23T09:36:23;0.00;;;0.00;;
39362;SDS011;25088;43.238;23.110;2023-03-23T09:38:51;0.00;;;0.00;;
39362;SDS011;25088;43.238;23.110;2023-03-23T09:49:33;0.00;;;0.00;;
39362;SDS011;25088;43.238;23.110;2023-03-23T09:52:11;0.00;;;0.00;;
39362;SDS011;25088;43.238;23.110;2023-03-23T09:57:22;0.00;;;0.00;;
39362;SDS011;25088;43.238;23.110;2023-03-23T09:59:57;0.00;;;0.00;;
39362;SDS011;25088;43.238;23.110;2023-03-23T10:02:56;0.00;;;0.00;;
39362;SDS011;25088;43.238;23.110;2023-03-23T10:05:43;0.00;;;0.00;;
39362;SDS011;25088;43.238;23.110;2023-03-23T10:08:25;0.00;;;0.00;;
39362;SDS011;25088;43.238;23.110;2023-03-23T10:13:50;0.00;;;0.00;;
39362;SDS011;25088;43.238;23.110;2023-03-23T10:16:37;0.00;;;0.00;;
39362;SDS011;25088;43.238;23.110;2023-03-23T10:22:10;0.00;;;0.00;;
39362;SDS011;25088;43.238;23.110;2023-03-23T10:30:22;0.00;;;0.00;;
39362;SDS011;25088;43.238;23.110;2023-03-23T10:33:02;0.00;;;0.00;;
39362;SDS011;25088;43.238;23.110;2023-03-23T10:35:37;0.00;;;0.00;;
39362;SDS011;25088;43.238;23.110;2023-03-23T10:38:19;0.00;;;0.00;;
39362;SDS011;25088;43.238;23.110;2023-03-23T10:40:50;0.00;;;0.00;;
39362;SDS011;25088;43.238;23.110;2023-03-23T10:43:21;0.00;;;0.00;;
39362;SDS011;25088;43.238;23.110;2023-03-23T10:45:50;0.00;;;0.00;;
39362;SDS011;25088;43.238;23.110;2023-03-23T10:48:24;0.00;;;0.00;;
39362;SDS011;25088;43.238;23.110;2023-03-23T10:50:56;0.10;;;0.10;;
39362;SDS011;25088;43.238;23.110;2023-03-23T10:53:32;0.00;;;0.00;;
39362;SDS011;25088;43.238;23.110;2023-03-23T10:56:03;0.00;;;0.00;;
39362;SDS011;25088;43.238;23.110;2023-03-23T10:58:30;0.00;;;0.00;;
39362;SDS011;25088;43.238;23.110;2023-03-23T11:00:59;0.00;;;0.00;;
39362;SDS011;25088;43.238;23.110;2023-03-23T11:05:59;0.00;;;0.00;;
39362;SDS011;25088;43.238;23.110;2023-03-23T11:08:29;0.00;;;0.00;;
39362;SDS011;25088;43.238;23.110;2023-03-23T11:13:38;0.00;;;0.00;;
39362;SDS011;25088;43.238;23.110;2023-03-23T11:16:07;0.00;;;0.00;;
39362;SDS011;25088;43.238;23.110;2023-03-23T11:18:35;0.00;;;0.00;;
39362;SDS011;25088;43.238;23.110;2023-03-23T11:21:05;0.00;;;0.00;;
39362;SDS011;25088;43.238;23.110;2023-03-23T11:23:37;0.00;;;0.00;;
39362;SDS011;25088;43.238;23.110;2023-03-23T11:28:37;0.00;;;0.00;;
39362;SDS011;25088;43.238;23.110;2023-03-23T11:31:08;0.00;;;0.00;;
39362;SDS011;25088;43.238;23.110;2023-03-23T11:33:36;0.00;;;0.00;;
39362;SDS011;25088;43.238;23.110;2023-03-23T11:36:17;0.00;;;0.00;;
39362;SDS011;25088;43.238;23.110;2023-03-23T11:38:43;0.00;;;0.00;;
39362;SDS011;25088;43.238;23.110;2023-03-23T11:41:12;0.00;;;0.00;;
39362;SDS011;25088;43.238;23.110;2023-03-23T11:43:44;0.00;;;0.00;;
39362;SDS011;25088;43.238;23.110;2023-03-23T11:46:15;0.00;;;0.00;;
39362;SDS011;25088;43.238;23.110;2023-03-23T11:48:57;0.00;;;0.00;;
39362;SDS011;25088;43.238;23.110;2023-03-23T11:51:47;0.00;;;0.00;;
39362;SDS011;25088;43.238;23.110;2023-03-23T11:54:33;0.00;;;0.00;;
39362;SDS011;25088;43.238;23.110;2023-03-23T11:57:06;0.00;;;0.00;;
39362;SDS011;25088;43.238;23.110;2023-03-23T11:59:38;0.00;;;0.00;;
39362;SDS011;25088;43.238;23.110;2023-03-23T12:02:21;0.00;;;0.00;;
39362;SDS011;25088;43.238;23.110;2023-03-23T12:07:27;0.00;;;0.00;;
39362;SDS011;25088;43.238;23.110;2023-03-23T12:18:40;0.00;;;0.00;;
39362;SDS011;25088;43.238;23.110;2023-03-23T12:32:46;0.00;;;0.00;;
39362;SDS011;25088;43.238;23.110;2023-03-23T12:35:19;0.00;;;0.00;;
39362;SDS011;25088;43.238;23.110;2023-03-23T12:49:20;0.00;;;0.00;;
39362;SDS011;25088;43.238;23.110;2023-03-23T12:55:25;0.00;;;0.00;;
39362;SDS011;25088;43.238;23.110;2023-03-23T12:58:04;0.00;;;0.00;;
39362;SDS011;25088;43.238;23.110;2023-03-23T13:06:22;0.00;;;0.00;;
39362;SDS011;25088;43.238;23.110;2023-03-23T13:11:22;0.00;;;0.00;;
39362;SDS011;25088;43.238;23.110;2023-03-23T13:13:59;0.00;;;0.00;;
39362;SDS011;25088;43.238;23.110;2023-03-23T13:24:10;0.00;;;0.00;;
39362;SDS011;25088;43.238;23.110;2023-03-23T13:26:42;0.00;;;0.00;;
39362;SDS011;25088;43.238;23.110;2023-03-23T13:29:11;0.00;;;0.00;;
39362;SDS011;25088;43.238;23.110;2023-03-23T13:31:39;0.00;;;0.00;;
39362;SDS011;25088;43.238;23.110;2023-03-23T13:36:54;0.00;;;0.00;;
39362;SDS011;25088;43.238;23.110;2023-03-23T13:39:30;0.00;;;0.00;;
39362;SDS011;25088;43.238;23.110;2023-03-23T13:42:18;0.00;;;0.00;;
39362;SDS011;25088;43.238;23.110;2023-03-23T13:44:57;0.00;;;0.00;;
39362;SDS011;25088;43.238;23.110;2023-03-23T13:47:35;0.00;;;0.00;;
39362;SDS011;25088;43.238;23.110;2023-03-23T14:05:50;0.00;;;0.00;;
39362;SDS011;25088;43.238;23.110;2023-03-23T14:10:59;0.00;;;0.00;;
39362;SDS011;25088;43.238;23.110;2023-03-23T14:16:19;0.00;;;0.00;;
39362;SDS011;25088;43.238;23.110;2023-03-23T14:18:49;0.00;;;0.00;;
39362;SDS011;25088;43.238;23.110;2023-03-23T14:21:22;0.00;;;0.00;;
39362;SDS011;25088;43.238;23.110;2023-03-23T14:23:55;0.00;;;0.00;;
39362;SDS011;25088;43.238;23.110;2023-03-23T14:26:22;0.00;;;0.00;;
39362;SDS011;25088;43.238;23.110;2023-03-23T14:28:49;0.00;;;0.00;;
39362;SDS011;25088;43.238;23.110;2023-03-23T14:33:49;0.00;;;0.00;;
39362;SDS011;25088;43.238;23.110;2023-03-23T14:36:26;0.00;;;0.00;;
39362;SDS011;25088;43.238;23.110;2023-03-23T14:39:02;0.00;;;0.00;;
39362;SDS011;25088;43.238;23.110;2023-03-23T14:41:29;0.00;;;0.00;;
39362;SDS011;25088;43.238;23.110;2023-03-23T14:43:55;0.00;;;0.00;;
39362;SDS011;25088;43.238;23.110;2023-03-23T14:46:22;0.00;;;0.00;;
39362;SDS011;25088;43.238;23.110;2023-03-23T14:48:49;0.00;;;0.00;;
39362;SDS011;25088;43.238;23.110;2023-03-23T14:51:17;0.00;;;0.00;;
39362;SDS011;25088;43.238;23.110;2023-03-23T14:53:44;0.00;;;0.00;;
39362;SDS011;25088;43.238;23.110;2023-03-23T14:56:11;0.00;;;0.00;;
39362;SDS011;25088;43.238;23.110;2023-03-23T14:58:42;0.00;;;0.00;;
39362;SDS011;25088;43.238;23.110;2023-03-23T15:01:12;0.00;;;0.00;;
39362;SDS011;25088;43.238;23.110;2023-03-23T15:06:17;0.00;;;0.00;;
39362;SDS011;25088;43.238;23.110;2023-03-23T15:08:46;0.00;;;0.00;;
39362;SDS011;25088;43.238;23.110;2023-03-23T15:13:52;0.00;;;0.00;;
39362;SDS011;25088;43.238;23.110;2023-03-23T15:16:25;0.00;;;0.00;;
39362;SDS011;25088;43.238;23.110;2023-03-23T15:19:04;0.00;;;0.00;;
39362;SDS011;25088;43.238;23.110;2023-03-23T15:21:47;0.00;;;0.00;;
39362;SDS011;25088;43.238;23.110;2023-03-23T15:24:24;0.00;;;0.00;;
39362;SDS011;25088;43.238;23.110;2023-03-23T15:29:31;0.00;;;0.00;;
39362;SDS011;25088;43.238;23.110;2023-03-23T15:31:56;0.00;;;0.00;;
39362;SDS011;25088;43.238;23.110;2023-03-23T15:34:28;0.00;;;0.00;;
39362;SDS011;25088;43.238;23.110;2023-03-23T15:37:00;0.00;;;0.00;;
39362;SDS011;25088;43.238;23.110;2023-03-23T15:39:27;0.00;;;0.00;;
39362;SDS011;25088;43.238;23.110;2023-03-23T15:41:54;0.00;;;0.00;;
39362;SDS011;25088;43.238;23.110;2023-03-23T15:44:31;0.00;;;0.00;;
39362;SDS011;25088;43.238;23.110;2023-03-23T15:47:15;0.00;;;0.00;;
39362;SDS011;25088;43.238;23.110;2023-03-23T15:49:43;0.00;;;0.00;;
39362;SDS011;25088;43.238;23.110;2023-03-23T15:52:10;0.00;;;0.00;;
39362;SDS011;25088;43.238;23.110;2023-03-23T15:54:37;0.00;;;0.00;;
39362;SDS011;25088;43.238;23.110;2023-03-23T15:57:04;0.00;;;0.00;;
39362;SDS011;25088;43.238;23.110;2023-03-23T15:59:29;0.00;;;0.00;;
39362;SDS011;25088;43.238;23.110;2023-03-23T16:01:55;0.00;;;0.00;;
39362;SDS011;25088;43.238;23.110;2023-03-23T16:04:21;0.00;;;0.00;;
39362;SDS011;25088;43.238;23.110;2023-03-23T16:06:47;0.00;;;0.00;;
39362;SDS011;25088;43.238;23.110;2023-03-23T16:09:16;0.00;;;0.00;;
39362;SDS011;25088;43.238;23.110;2023-03-23T16:11:44;0.00;;;0.00;;
39362;SDS011;25088;43.238;23.110;2023-03-23T16:14:09;0.00;;;0.00;;
39362;SDS011;25088;43.238;23.110;2023-03-23T16:16:36;0.00;;;0.00;;
39362;SDS011;25088;43.238;23.110;2023-03-23T16:19:04;0.00;;;0.00;;
39362;SDS011;25088;43.238;23.110;2023-03-23T16:21:30;0.00;;;0.00;;
39362;SDS011;25088;43.238;23.110;2023-03-23T16:23:56;0.00;;;0.00;;
39362;SDS011;25088;43.238;23.110;2023-03-23T16:26:22;0.00;;;0.00;;
39362;SDS011;25088;43.238;23.110;2023-03-23T16:28:48;0.00;;;0.00;;
39362;SDS011;25088;43.238;23.110;2023-03-23T16:31:13;0.00;;;0.00;;
39362;SDS011;25088;43.238;23.110;2023-03-23T16:33:39;0.00;;;0.00;;
39362;SDS011;25088;43.238;23.110;2023-03-23T16:36:05;0.00;;;0.00;;
39362;SDS011;25088;43.238;23.110;2023-03-23T16:38:31;0.00;;;0.00;;
39362;SDS011;25088;43.238;23.110;2023-03-23T16:40:56;0.00;;;0.00;;
39362;SDS011;25088;43.238;23.110;2023-03-23T16:43:22;0.00;;;0.00;;
39362;SDS011;25088;43.238;23.110;2023-03-23T16:45:47;0.10;;;0.10;;
39362;SDS011;25088;43.238;23.110;2023-03-23T16:48:14;0.00;;;0.00;;
39362;SDS011;25088;43.238;23.110;2023-03-23T16:50:40;0.10;;;0.10;;
39362;SDS011;25088;43.238;23.110;2023-03-23T16:53:08;0.00;;;0.00;;
39362;SDS011;25088;43.238;23.110;2023-03-23T16:55:34;0.10;;;0.10;;
39362;SDS011;25088;43.238;23.110;2023-03-23T16:58:01;0.10;;;0.10;;
39362;SDS011;25088;43.238;23.110;2023-03-23T17:00:27;0.05;;;0.05;;
39362;SDS011;25088;43.238;23.110;2023-03-23T17:02:54;0.10;;;0.10;;
39362;SDS011;25088;43.238;23.110;2023-03-23T17:05:24;0.10;;;0.10;;
39362;SDS011;25088;43.238;23.110;2023-03-23T17:07:52;0.10;;;0.10;;
39362;SDS011;25088;43.238;23.110;2023-03-23T17:10:19;0.10;;;0.10;;
39362;SDS011;25088;43.238;23.110;2023-03-23T17:12:46;0.10;;;0.10;;